sensor_id;sensor_type;location;lat;lon;timestamp;temperature;humidity
15656;DHT22;7928;43.614;1.456;2023-08-30T00:02:24;17.50;99.90
15656;DHT22;7928;43.614;1.456;2023-08-30T00:04:51;17.50;99.90
15656;DHT22;7928;43.614;1.456;2023-08-30T00:07:18;17.60;99.90
15656;DHT22;7928;43.614;1.456;2023-08-30T00:09:44;17.60;99.90
15656;DHT22;7928;43.614;1.456;2023-08-30T00:12:12;17.60;99.90
15656;DHT22;7928;43.614;1.456;2023-08-30T00:14:39;17.60;99.90
15656;DHT22;7928;43.614;1.456;2023-08-30T00:17:07;17.60;99.90
15656;DHT22;7928;43.614;1.456;2023-08-30T00:19:34;17.50;99.90
15656;DHT22;7928;43.614;1.456;2023-08-30T00:22:01;17.60;99.90
15656;DHT22;7928;43.614;1.456;2023-08-30T00:24:29;17.60;99.90
15656;DHT22;7928;43.614;1.456;2023-08-30T00:26:56;17.50;99.90
15656;DHT22;7928;43.614;1.456;2023-08-30T00:29:23;17.50;99.90
15656;DHT22;7928;43.614;1.456;2023-08-30T00:31:50;17.50;99.90
15656;DHT22;7928;43.614;1.456;2023-08-30T00:34:18;17.50;99.90
15656;DHT22;7928;43.614;1.456;2023-08-30T00:36:45;17.40;99.90
15656;DHT22;7928;43.614;1.456;2023-08-30T00:39:12;17.40;99.90
15656;DHT22;7928;43.614;1.456;2023-08-30T00:41:39;17.40;99.90
15656;DHT22;7928;43.614;1.456;2023-08-30T00:44:06;17.50;99.90
15656;DHT22;7928;43.614;1.456;2023-08-30T00:46:33;17.50;99.90
15656;DHT22;7928;43.614;1.456;2023-08-30T00:49:01;17.50;99.90
15656;DHT22;7928;43.614;1.456;2023-08-30T00:51:30;17.50;99.90
15656;DHT22;7928;43.614;1.456;2023-08-30T00:53:58;17.50;99.90
15656;DHT22;7928;43.614;1.456;2023-08-30T00:56:27;17.40;99.90
15656;DHT22;7928;43.614;1.456;2023-08-30T00:58:55;17.40;99.90
15656;DHT22;7928;43.614;1.456;2023-08-30T01:01:22;17.30;99.90
15656;DHT22;7928;43.614;1.456;2023-08-30T01:03:49;17.30;99.90
15656;DHT22;7928;43.614;1.456;2023-08-30T01:06:16;17.30;99.90
15656;DHT22;7928;43.614;1.456;2023-08-30T01:08:45;17.30;99.90
15656;DHT22;7928;43.614;1.456;2023-08-30T01:11:16;17.20;99.90
15656;DHT22;7928;43.614;1.456;2023-08-30T01:13:50;17.20;99.90
15656;DHT22;7928;43.614;1.456;2023-08-30T01:16:18;17.20;99.90
15656;DHT22;7928;43.614;1.456;2023-08-30T01:18:47;17.20;99.90
15656;DHT22;7928;43.614;1.456;2023-08-30T01:21:27;17.30;99.90
15656;DHT22;7928;43.614;1.456;2023-08-30T01:23:59;17.30;99.90
15656;DHT22;7928;43.614;1.456;2023-08-30T01:26:38;17.20;99.90
15656;DHT22;7928;43.614;1.456;2023-08-30T01:29:11;17.20;99.90
15656;DHT22;7928;43.614;1.456;2023-08-30T01:31:40;17.10;99.90
15656;DHT22;7928;43.614;1.456;2023-08-30T01:34:08;17.10;99.90
15656;DHT22;7928;43.614;1.456;2023-08-30T01:36:36;17.20;99.90
15656;DHT22;7928;43.614;1.456;2023-08-30T01:39:03;17.20;99.90
15656;DHT22;7928;43.614;1.456;2023-08-30T01:41:32;17.10;99.90
15656;DHT22;7928;43.614;1.456;2023-08-30T01:44:02;17.10;99.90
15656;DHT22;7928;43.614;1.456;2023-08-30T01:46:32;17.20;99.90
15656;DHT22;7928;43.614;1.456;2023-08-30T01:49:02;17.20;99.90
15656;DHT22;7928;43.614;1.456;2023-08-30T01:51:30;17.20;99.90
15656;DHT22;7928;43.614;1.456;2023-08-30T01:53:58;17.30;99.90
15656;DHT22;7928;43.614;1.456;2023-08-30T01:56:25;17.40;99.90
15656;DHT22;7928;43.614;1.456;2023-08-30T01:58:52;17.30;99.90
15656;DHT22;7928;43.614;1.456;2023-08-30T02:01:19;17.30;99.90
15656;DHT22;7928;43.614;1.456;2023-08-30T02:03:47;17.30;99.90
15656;DHT22;7928;43.614;1.456;2023-08-30T02:06:20;17.30;99.90
15656;DHT22;7928;43.614;1.456;2023-08-30T02:08:52;17.20;99.90
15656;DHT22;7928;43.614;1.456;2023-08-30T02:11:23;17.20;99.90
15656;DHT22;7928;43.614;1.456;2023-08-30T02:13:54;17.10;99.90
15656;DHT22;7928;43.614;1.456;2023-08-30T02:16:23;17.10;99.90
15656;DHT22;7928;43.614;1.456;2023-08-30T02:18:53;17.10;99.90
15656;DHT22;7928;43.614;1.456;2023-08-30T02:21:20;17.00;99.90
15656;DHT22;7928;43.614;1.456;2023-08-30T02:23:49;17.00;99.90
15656;DHT22;7928;43.614;1.456;2023-08-30T02:26:18;16.90;99.90
15656;DHT22;7928;43.614;1.456;2023-08-30T02:28:45;17.00;99.90
15656;DHT22;7928;43.614;1.456;2023-08-30T02:31:12;16.90;99.90
15656;DHT22;7928;43.614;1.456;2023-08-30T02:33:39;16.90;99.90
15656;DHT22;7928;43.614;1.456;2023-08-30T02:36:07;17.00;99.90
15656;DHT22;7928;43.614;1.456;2023-08-30T02:38:34;17.00;99.90
15656;DHT22;7928;43.614;1.456;2023-08-30T02:41:01;17.10;99.90
15656;DHT22;7928;43.614;1.456;2023-08-30T02:43:28;17.10;99.90
15656;DHT22;7928;43.614;1.456;2023-08-30T02:45:55;17.10;99.90
15656;DHT22;7928;43.614;1.456;2023-08-30T02:48:22;17.10;99.90
15656;DHT22;7928;43.614;1.456;2023-08-30T02:50:49;17.10;99.90
15656;DHT22;7928;43.614;1.456;2023-08-30T02:53:18;17.10;99.90
15656;DHT22;7928;43.614;1.456;2023-08-30T02:55:46;17.10;99.90
15656;DHT22;7928;43.614;1.456;2023-08-30T02:58:13;17.10;99.90
15656;DHT22;7928;43.614;1.456;2023-08-30T03:00:40;17.00;99.90
15656;DHT22;7928;43.614;1.456;2023-08-30T03:03:07;17.00;99.90
15656;DHT22;7928;43.614;1.456;2023-08-30T03:05:34;17.00;99.90
15656;DHT22;7928;43.614;1.456;2023-08-30T03:08:01;17.00;99.90
15656;DHT22;7928;43.614;1.456;2023-08-30T03:10:30;16.90;99.90
15656;DHT22;7928;43.614;1.456;2023-08-30T03:12:57;16.80;99.90
15656;DHT22;7928;43.614;1.456;2023-08-30T03:15:24;16.80;99.90
15656;DHT22;7928;43.614;1.456;2023-08-30T03:17:51;16.70;99.90
15656;DHT22;7928;43.614;1.456;2023-08-30T03:20:18;16.70;99.90
15656;DHT22;7928;43.614;1.456;2023-08-30T03:22:45;16.70;99.90
15656;DHT22;7928;43.614;1.456;2023-08-30T03:25:12;16.60;99.90
15656;DHT22;7928;43.614;1.456;2023-08-30T03:27:41;16.60;99.90
15656;DHT22;7928;43.614;1.456;2023-08-30T03:30:09;16.60;99.90
15656;DHT22;7928;43.614;1.456;2023-08-30T03:32:36;16.50;99.90
15656;DHT22;7928;43.614;1.456;2023-08-30T03:35:04;16.50;99.90
15656;DHT22;7928;43.614;1.456;2023-08-30T03:37:31;16.50;99.90
15656;DHT22;7928;43.614;1.456;2023-08-30T03:39:58;16.50;99.90
15656;DHT22;7928;43.614;1.456;2023-08-30T03:42:25;16.50;99.90
15656;DHT22;7928;43.614;1.456;2023-08-30T03:44:53;16.50;99.90
15656;DHT22;7928;43.614;1.456;2023-08-30T03:47:20;16.60;99.90
15656;DHT22;7928;43.614;1.456;2023-08-30T03:49:47;16.70;99.90
15656;DHT22;7928;43.614;1.456;2023-08-30T03:52:14;16.60;99.90
15656;DHT22;7928;43.614;1.456;2023-08-30T03:54:41;16.70;99.90
15656;DHT22;7928;43.614;1.456;2023-08-30T03:57:08;16.80;99.90
15656;DHT22;7928;43.614;1.456;2023-08-30T03:59:35;16.80;99.90
15656;DHT22;7928;43.614;1.456;2023-08-30T04:02:04;16.90;99.90
15656;DHT22;7928;43.614;1.456;2023-08-30T04:04:31;16.80;99.90
15656;DHT22;7928;43.614;1.456;2023-08-30T04:06:58;16.80;99.90
15656;DHT22;7928;43.614;1.456;2023-08-30T04:09:25;16.80;99.90
15656;DHT22;7928;43.614;1.456;2023-08-30T04:11:52;16.80;99.90
15656;DHT22;7928;43.614;1.456;2023-08-30T04:14:19;16.80;99.90
15656;DHT22;7928;43.614;1.456;2023-08-30T04:16:46;16.80;99.90
15656;DHT22;7928;43.614;1.456;2023-08-30T04:19:14;16.80;99.90
15656;DHT22;7928;43.614;1.456;2023-08-30T04:21:41;16.70;99.90
15656;DHT22;7928;43.614;1.456;2023-08-30T04:24:08;16.70;99.90
15656;DHT22;7928;43.614;1.456;2023-08-30T04:26:35;16.80;99.90
15656;DHT22;7928;43.614;1.456;2023-08-30T04:29:02;16.80;99.90
15656;DHT22;7928;43.614;1.456;2023-08-30T04:31:29;16.90;99.90
15656;DHT22;7928;43.614;1.456;2023-08-30T04:33:56;16.80;99.90
15656;DHT22;7928;43.614;1.456;2023-08-30T04:36:25;16.80;99.90
15656;DHT22;7928;43.614;1.456;2023-08-30T04:38:52;16.80;99.90
15656;DHT22;7928;43.614;1.456;2023-08-30T04:41:19;16.70;99.90
15656;DHT22;7928;43.614;1.456;2023-08-30T04:43:46;16.70;99.90
15656;DHT22;7928;43.614;1.456;2023-08-30T04:46:13;16.80;99.90
15656;DHT22;7928;43.614;1.456;2023-08-30T04:48:40;16.80;99.90
15656;DHT22;7928;43.614;1.456;2023-08-30T04:51:07;16.70;99.90
15656;DHT22;7928;43.614;1.456;2023-08-30T04:53:34;16.70;99.90
15656;DHT22;7928;43.614;1.456;2023-08-30T04:56:10;16.80;99.90
15656;DHT22;7928;43.614;1.456;2023-08-30T04:58:37;16.80;99.90
15656;DHT22;7928;43.614;1.456;2023-08-30T05:01:04;16.70;99.90
15656;DHT22;7928;43.614;1.456;2023-08-30T05:03:32;16.80;99.90
15656;DHT22;7928;43.614;1.456;2023-08-30T05:05:59;16.80;99.90
15656;DHT22;7928;43.614;1.456;2023-08-30T05:08:26;16.80;99.90
15656;DHT22;7928;43.614;1.456;2023-08-30T05:10:55;16.90;99.90
15656;DHT22;7928;43.614;1.456;2023-08-30T05:13:22;16.90;99.90
15656;DHT22;7928;43.614;1.456;2023-08-30T05:15:49;16.90;99.90
15656;DHT22;7928;43.614;1.456;2023-08-30T05:18:18;16.80;99.90
15656;DHT22;7928;43.614;1.456;2023-08-30T05:20:45;16.80;99.90
15656;DHT22;7928;43.614;1.456;2023-08-30T05:23:12;16.90;99.90
15656;DHT22;7928;43.614;1.456;2023-08-30T05:25:39;16.90;99.90
15656;DHT22;7928;43.614;1.456;2023-08-30T05:28:08;17.00;99.90
15656;DHT22;7928;43.614;1.456;2023-08-30T05:30:35;16.90;99.90
15656;DHT22;7928;43.614;1.456;2023-08-30T05:33:02;16.90;99.90
15656;DHT22;7928;43.614;1.456;2023-08-30T05:35:29;16.80;99.90
15656;DHT22;7928;43.614;1.456;2023-08-30T05:37:56;16.80;99.90
15656;DHT22;7928;43.614;1.456;2023-08-30T05:40:23;16.80;99.90
15656;DHT22;7928;43.614;1.456;2023-08-30T05:42:50;16.90;99.90
15656;DHT22;7928;43.614;1.456;2023-08-30T05:45:18;16.80;99.90
15656;DHT22;7928;43.614;1.456;2023-08-30T05:47:45;16.80;99.90
15656;DHT22;7928;43.614;1.456;2023-08-30T05:50:12;16.80;99.90
15656;DHT22;7928;43.614;1.456;2023-08-30T05:52:39;16.90;99.90
15656;DHT22;7928;43.614;1.456;2023-08-30T05:55:07;17.00;99.90
15656;DHT22;7928;43.614;1.456;2023-08-30T05:57:35;17.20;99.90
15656;DHT22;7928;43.614;1.456;2023-08-30T06:00:02;17.30;99.90
15656;DHT22;7928;43.614;1.456;2023-08-30T06:02:31;17.30;99.90
15656;DHT22;7928;43.614;1.456;2023-08-30T06:04:58;17.40;99.90
15656;DHT22;7928;43.614;1.456;2023-08-30T06:07:25;17.50;99.90
15656;DHT22;7928;43.614;1.456;2023-08-30T06:09:53;17.60;99.90
15656;DHT22;7928;43.614;1.456;2023-08-30T06:12:19;17.60;99.90
15656;DHT22;7928;43.614;1.456;2023-08-30T06:14:46;17.60;99.90
15656;DHT22;7928;43.614;1.456;2023-08-30T06:17:17;17.60;99.90
15656;DHT22;7928;43.614;1.456;2023-08-30T06:19:46;17.60;99.90
15656;DHT22;7928;43.614;1.456;2023-08-30T06:22:13;17.60;99.90
15656;DHT22;7928;43.614;1.456;2023-08-30T06:24:41;17.50;99.90
15656;DHT22;7928;43.614;1.456;2023-08-30T06:27:08;17.50;99.90
15656;DHT22;7928;43.614;1.456;2023-08-30T06:29:35;17.50;99.90
15656;DHT22;7928;43.614;1.456;2023-08-30T06:32:02;17.60;99.90
15656;DHT22;7928;43.614;1.456;2023-08-30T06:34:29;17.80;99.90
15656;DHT22;7928;43.614;1.456;2023-08-30T06:36:57;18.00;99.90
15656;DHT22;7928;43.614;1.456;2023-08-30T06:39:24;18.10;99.90
15656;DHT22;7928;43.614;1.456;2023-08-30T06:41:51;18.20;99.90
15656;DHT22;7928;43.614;1.456;2023-08-30T06:44:18;18.10;99.90
15656;DHT22;7928;43.614;1.456;2023-08-30T06:46:47;18.20;99.90
15656;DHT22;7928;43.614;1.456;2023-08-30T06:49:14;18.10;99.90
15656;DHT22;7928;43.614;1.456;2023-08-30T06:51:41;18.20;99.90
15656;DHT22;7928;43.614;1.456;2023-08-30T06:54:09;18.30;99.90
15656;DHT22;7928;43.614;1.456;2023-08-30T06:56:36;18.40;99.90
15656;DHT22;7928;43.614;1.456;2023-08-30T06:59:03;18.50;99.90
15656;DHT22;7928;43.614;1.456;2023-08-30T07:01:30;18.60;99.90
15656;DHT22;7928;43.614;1.456;2023-08-30T07:03:57;18.50;99.90
15656;DHT22;7928;43.614;1.456;2023-08-30T07:06:24;18.50;99.90
15656;DHT22;7928;43.614;1.456;2023-08-30T07:08:55;18.50;99.90
15656;DHT22;7928;43.614;1.456;2023-08-30T07:11:23;18.40;99.90
15656;DHT22;7928;43.614;1.456;2023-08-30T07:13:50;18.30;99.90
15656;DHT22;7928;43.614;1.456;2023-08-30T07:16:17;18.30;99.90
15656;DHT22;7928;43.614;1.456;2023-08-30T07:18:44;18.30;99.90
15656;DHT22;7928;43.614;1.456;2023-08-30T07:21:11;18.40;99.90
15656;DHT22;7928;43.614;1.456;2023-08-30T07:23:39;18.40;99.90
15656;DHT22;7928;43.614;1.456;2023-08-30T07:26:06;18.50;99.90
15656;DHT22;7928;43.614;1.456;2023-08-30T07:28:34;18.40;99.90
15656;DHT22;7928;43.614;1.456;2023-08-30T07:31:04;18.30;99.90
15656;DHT22;7928;43.614;1.456;2023-08-30T07:33:31;18.40;99.90
15656;DHT22;7928;43.614;1.456;2023-08-30T07:35:58;18.30;99.90
15656;DHT22;7928;43.614;1.456;2023-08-30T07:38:25;18.30;99.90
15656;DHT22;7928;43.614;1.456;2023-08-30T07:40:53;18.50;99.90
15656;DHT22;7928;43.614;1.456;2023-08-30T07:43:20;18.60;99.90
15656;DHT22;7928;43.614;1.456;2023-08-30T07:45:48;18.80;99.90
15656;DHT22;7928;43.614;1.456;2023-08-30T07:48:15;18.90;99.90
15656;DHT22;7928;43.614;1.456;2023-08-30T07:50:42;19.00;99.90
15656;DHT22;7928;43.614;1.456;2023-08-30T07:53:09;19.10;99.90
15656;DHT22;7928;43.614;1.456;2023-08-30T07:55:36;19.10;99.90
15656;DHT22;7928;43.614;1.456;2023-08-30T07:58:03;19.20;99.90
15656;DHT22;7928;43.614;1.456;2023-08-30T08:00:30;19.40;99.90
15656;DHT22;7928;43.614;1.456;2023-08-30T08:02:59;19.60;99.90
15656;DHT22;7928;43.614;1.456;2023-08-30T08:05:26;19.70;99.90
15656;DHT22;7928;43.614;1.456;2023-08-30T08:07:53;19.70;99.90
15656;DHT22;7928;43.614;1.456;2023-08-30T08:10:20;19.70;99.90
15656;DHT22;7928;43.614;1.456;2023-08-30T08:12:47;19.90;99.90
15656;DHT22;7928;43.614;1.456;2023-08-30T08:15:14;20.00;99.90
15656;DHT22;7928;43.614;1.456;2023-08-30T08:17:41;20.10;99.90
15656;DHT22;7928;43.614;1.456;2023-08-30T08:20:11;20.20;99.90
15656;DHT22;7928;43.614;1.456;2023-08-30T08:22:37;20.20;99.90
15656;DHT22;7928;43.614;1.456;2023-08-30T08:25:05;20.20;99.90
15656;DHT22;7928;43.614;1.456;2023-08-30T08:27:35;20.20;99.90
15656;DHT22;7928;43.614;1.456;2023-08-30T08:30:03;20.30;99.90
15656;DHT22;7928;43.614;1.456;2023-08-30T08:32:30;20.20;99.90
15656;DHT22;7928;43.614;1.456;2023-08-30T08:34:57;20.20;99.90
15656;DHT22;7928;43.614;1.456;2023-08-30T08:37:26;20.20;99.90
15656;DHT22;7928;43.614;1.456;2023-08-30T08:39:53;20.20;99.90
15656;DHT22;7928;43.614;1.456;2023-08-30T08:42:20;20.20;99.90
15656;DHT22;7928;43.614;1.456;2023-08-30T08:44:47;20.40;99.90
15656;DHT22;7928;43.614;1.456;2023-08-30T08:47:17;20.60;99.90
15656;DHT22;7928;43.614;1.456;2023-08-30T08:49:46;20.80;99.90
15656;DHT22;7928;43.614;1.456;2023-08-30T08:52:14;20.90;99.90
15656;DHT22;7928;43.614;1.456;2023-08-30T08:54:43;20.90;99.90
15656;DHT22;7928;43.614;1.456;2023-08-30T08:57:10;20.90;99.90
15656;DHT22;7928;43.614;1.456;2023-08-30T08:59:37;21.00;99.90
15656;DHT22;7928;43.614;1.456;2023-08-30T09:02:04;21.10;99.90
15656;DHT22;7928;43.614;1.456;2023-08-30T09:04:32;21.20;99.90
15656;DHT22;7928;43.614;1.456;2023-08-30T09:06:59;20.90;99.90
15656;DHT22;7928;43.614;1.456;2023-08-30T09:09:26;20.90;99.90
15656;DHT22;7928;43.614;1.456;2023-08-30T09:11:55;20.80;99.90
15656;DHT22;7928;43.614;1.456;2023-08-30T09:14:22;21.00;99.90
15656;DHT22;7928;43.614;1.456;2023-08-30T09:16:55;21.20;99.90
15656;DHT22;7928;43.614;1.456;2023-08-30T09:19:22;21.30;99.90
15656;DHT22;7928;43.614;1.456;2023-08-30T09:21:53;21.40;99.90
15656;DHT22;7928;43.614;1.456;2023-08-30T09:24:20;21.80;99.90
15656;DHT22;7928;43.614;1.456;2023-08-30T09:26:48;21.90;99.90
15656;DHT22;7928;43.614;1.456;2023-08-30T09:29:17;22.00;99.90
15656;DHT22;7928;43.614;1.456;2023-08-30T09:31:45;22.00;99.90
15656;DHT22;7928;43.614;1.456;2023-08-30T09:34:12;22.10;99.90
15656;DHT22;7928;43.614;1.456;2023-08-30T09:36:40;22.00;99.90
15656;DHT22;7928;43.614;1.456;2023-08-30T09:39:08;21.60;99.90
15656;DHT22;7928;43.614;1.456;2023-08-30T09:41:36;21.60;99.90
15656;DHT22;7928;43.614;1.456;2023-08-30T09:44:06;21.70;99.90
15656;DHT22;7928;43.614;1.456;2023-08-30T09:46:42;21.40;99.90
15656;DHT22;7928;43.614;1.456;2023-08-30T09:49:10;21.50;99.90
15656;DHT22;7928;43.614;1.456;2023-08-30T09:51:39;21.60;99.90
15656;DHT22;7928;43.614;1.456;2023-08-30T09:54:16;21.90;99.90
15656;DHT22;7928;43.614;1.456;2023-08-30T09:56:43;22.10;99.90
15656;DHT22;7928;43.614;1.456;2023-08-30T09:59:11;22.30;99.90
15656;DHT22;7928;43.614;1.456;2023-08-30T10:01:40;22.20;99.90
15656;DHT22;7928;43.614;1.456;2023-08-30T10:04:08;22.40;99.90
15656;DHT22;7928;43.614;1.456;2023-08-30T10:06:35;22.30;99.90
15656;DHT22;7928;43.614;1.456;2023-08-30T10:09:04;22.30;99.90
15656;DHT22;7928;43.614;1.456;2023-08-30T10:11:33;22.20;99.90
15656;DHT22;7928;43.614;1.456;2023-08-30T10:14:02;22.10;99.90
15656;DHT22;7928;43.614;1.456;2023-08-30T10:16:35;22.00;99.90
15656;DHT22;7928;43.614;1.456;2023-08-30T10:19:09;22.20;99.90
15656;DHT22;7928;43.614;1.456;2023-08-30T10:21:37;22.80;99.90
15656;DHT22;7928;43.614;1.456;2023-08-30T10:24:07;23.00;99.90
15656;DHT22;7928;43.614;1.456;2023-08-30T10:26:35;23.10;99.90
15656;DHT22;7928;43.614;1.456;2023-08-30T10:29:05;22.90;99.90
15656;DHT22;7928;43.614;1.456;2023-08-30T10:31:32;22.80;99.90
15656;DHT22;7928;43.614;1.456;2023-08-30T10:33:59;22.90;99.90
15656;DHT22;7928;43.614;1.456;2023-08-30T10:36:28;22.80;99.90
15656;DHT22;7928;43.614;1.456;2023-08-30T10:38:55;23.00;99.90
15656;DHT22;7928;43.614;1.456;2023-08-30T10:41:23;23.00;99.90
15656;DHT22;7928;43.614;1.456;2023-08-30T10:43:52;23.20;99.90
15656;DHT22;7928;43.614;1.456;2023-08-30T10:46:30;23.40;99.90
15656;DHT22;7928;43.614;1.456;2023-08-30T10:49:08;23.50;99.90
15656;DHT22;7928;43.614;1.456;2023-08-30T10:51:38;23.60;99.90
15656;DHT22;7928;43.614;1.456;2023-08-30T10:54:11;24.10;99.90
15656;DHT22;7928;43.614;1.456;2023-08-30T10:56:47;24.30;99.90
15656;DHT22;7928;43.614;1.456;2023-08-30T10:59:18;24.90;99.90
15656;DHT22;7928;43.614;1.456;2023-08-30T11:01:46;25.40;99.90
15656;DHT22;7928;43.614;1.456;2023-08-30T11:04:15;25.80;99.90
15656;DHT22;7928;43.614;1.456;2023-08-30T11:06:45;25.60;99.90
15656;DHT22;7928;43.614;1.456;2023-08-30T11:09:16;25.20;99.90
15656;DHT22;7928;43.614;1.456;2023-08-30T11:11:44;24.80;99.90
15656;DHT22;7928;43.614;1.456;2023-08-30T11:14:12;24.70;99.90
15656;DHT22;7928;43.614;1.456;2023-08-30T11:16:39;25.10;99.90
15656;DHT22;7928;43.614;1.456;2023-08-30T11:19:07;25.40;99.90
15656;DHT22;7928;43.614;1.456;2023-08-30T11:21:36;25.20;99.90
15656;DHT22;7928;43.614;1.456;2023-08-30T11:24:05;24.80;99.90
15656;DHT22;7928;43.614;1.456;2023-08-30T11:26:33;24.90;99.90
15656;DHT22;7928;43.614;1.456;2023-08-30T11:29:04;25.20;99.90
15656;DHT22;7928;43.614;1.456;2023-08-30T11:31:31;25.60;99.90
15656;DHT22;7928;43.614;1.456;2023-08-30T11:33:59;25.50;99.90
15656;DHT22;7928;43.614;1.456;2023-08-30T11:36:27;25.10;99.90
15656;DHT22;7928;43.614;1.456;2023-08-30T11:38:54;24.90;99.90
15656;DHT22;7928;43.614;1.456;2023-08-30T11:41:23;24.70;99.90
15656;DHT22;7928;43.614;1.456;2023-08-30T11:43:50;24.80;99.90
15656;DHT22;7928;43.614;1.456;2023-08-30T11:46:17;24.60;99.90
15656;DHT22;7928;43.614;1.456;2023-08-30T11:48:47;24.70;99.90
15656;DHT22;7928;43.614;1.456;2023-08-30T11:51:15;24.90;99.90
15656;DHT22;7928;43.614;1.456;2023-08-30T11:53:43;25.60;99.90
15656;DHT22;7928;43.614;1.456;2023-08-30T11:56:10;25.80;99.90
15656;DHT22;7928;43.614;1.456;2023-08-30T11:58:39;26.00;99.90
15656;DHT22;7928;43.614;1.456;2023-08-30T12:01:07;26.10;99.90
15656;DHT22;7928;43.614;1.456;2023-08-30T12:03:34;26.40;99.90
15656;DHT22;7928;43.614;1.456;2023-08-30T12:06:01;27.30;99.90
15656;DHT22;7928;43.614;1.456;2023-08-30T12:08:30;28.10;99.90
15656;DHT22;7928;43.614;1.456;2023-08-30T12:10:57;29.40;99.90
15656;DHT22;7928;43.614;1.456;2023-08-30T12:13:25;29.60;99.90
15656;DHT22;7928;43.614;1.456;2023-08-30T12:15:55;29.60;99.90
15656;DHT22;7928;43.614;1.456;2023-08-30T12:18:22;30.20;99.90
15656;DHT22;7928;43.614;1.456;2023-08-30T12:20:54;29.20;99.90
15656;DHT22;7928;43.614;1.456;2023-08-30T12:23:23;27.70;99.90
15656;DHT22;7928;43.614;1.456;2023-08-30T12:25:57;28.10;99.90
15656;DHT22;7928;43.614;1.456;2023-08-30T12:28:25;28.70;99.90
15656;DHT22;7928;43.614;1.456;2023-08-30T12:30:53;28.60;99.90
15656;DHT22;7928;43.614;1.456;2023-08-30T12:33:20;27.20;99.90
15656;DHT22;7928;43.614;1.456;2023-08-30T12:35:47;26.60;99.90
15656;DHT22;7928;43.614;1.456;2023-08-30T12:38:14;26.50;99.90
15656;DHT22;7928;43.614;1.456;2023-08-30T12:40:44;26.90;99.90
15656;DHT22;7928;43.614;1.456;2023-08-30T12:43:11;26.90;99.90
15656;DHT22;7928;43.614;1.456;2023-08-30T12:45:38;27.00;99.90
15656;DHT22;7928;43.614;1.456;2023-08-30T12:48:07;27.30;99.90
15656;DHT22;7928;43.614;1.456;2023-08-30T12:50:35;28.30;99.90
15656;DHT22;7928;43.614;1.456;2023-08-30T12:53:02;28.20;99.90
15656;DHT22;7928;43.614;1.456;2023-08-30T12:55:29;27.60;99.90
15656;DHT22;7928;43.614;1.456;2023-08-30T12:57:57;28.60;99.90
15656;DHT22;7928;43.614;1.456;2023-08-30T13:00:24;29.40;99.90
15656;DHT22;7928;43.614;1.456;2023-08-30T13:02:51;29.80;99.90
15656;DHT22;7928;43.614;1.456;2023-08-30T13:05:19;28.30;99.90
15656;DHT22;7928;43.614;1.456;2023-08-30T13:07:47;27.90;99.90
15656;DHT22;7928;43.614;1.456;2023-08-30T13:10:15;28.00;99.90
15656;DHT22;7928;43.614;1.456;2023-08-30T13:12:42;28.30;99.90
15656;DHT22;7928;43.614;1.456;2023-08-30T13:15:10;29.10;99.90
15656;DHT22;7928;43.614;1.456;2023-08-30T13:17:37;30.60;99.80
15656;DHT22;7928;43.614;1.456;2023-08-30T13:20:04;30.60;99.40
15656;DHT22;7928;43.614;1.456;2023-08-30T13:22:33;30.50;99.40
15656;DHT22;7928;43.614;1.456;2023-08-30T13:25:01;30.30;98.40
15656;DHT22;7928;43.614;1.456;2023-08-30T13:27:29;30.10;98.90
15656;DHT22;7928;43.614;1.456;2023-08-30T13:29:56;30.70;98.60
15656;DHT22;7928;43.614;1.456;2023-08-30T13:32:23;30.40;97.50
15656;DHT22;7928;43.614;1.456;2023-08-30T13:34:50;30.30;97.90
15656;DHT22;7928;43.614;1.456;2023-08-30T13:37:17;30.30;97.70
15656;DHT22;7928;43.614;1.456;2023-08-30T13:39:46;29.60;97.40
15656;DHT22;7928;43.614;1.456;2023-08-30T13:42:13;29.20;97.80
15656;DHT22;7928;43.614;1.456;2023-08-30T13:44:40;30.10;98.50
15656;DHT22;7928;43.614;1.456;2023-08-30T13:47:09;30.70;97.10
15656;DHT22;7928;43.614;1.456;2023-08-30T13:49:36;30.70;96.40
15656;DHT22;7928;43.614;1.456;2023-08-30T13:52:03;30.50;96.00
15656;DHT22;7928;43.614;1.456;2023-08-30T13:54:30;30.20;97.10
15656;DHT22;7928;43.614;1.456;2023-08-30T13:56:59;31.20;96.50
15656;DHT22;7928;43.614;1.456;2023-08-30T13:59:26;30.30;95.80
15656;DHT22;7928;43.614;1.456;2023-08-30T14:01:54;29.30;96.80
15656;DHT22;7928;43.614;1.456;2023-08-30T14:04:23;30.20;97.00
15656;DHT22;7928;43.614;1.456;2023-08-30T14:06:51;29.70;96.70
15656;DHT22;7928;43.614;1.456;2023-08-30T14:09:18;30.20;96.00
15656;DHT22;7928;43.614;1.456;2023-08-30T14:11:45;30.80;95.90
15656;DHT22;7928;43.614;1.456;2023-08-30T14:14:14;31.00;94.90
15656;DHT22;7928;43.614;1.456;2023-08-30T14:16:41;30.40;95.20
15656;DHT22;7928;43.614;1.456;2023-08-30T14:19:08;30.40;95.00
15656;DHT22;7928;43.614;1.456;2023-08-30T14:21:35;30.00;95.30
15656;DHT22;7928;43.614;1.456;2023-08-30T14:24:02;29.60;96.50
15656;DHT22;7928;43.614;1.456;2023-08-30T14:26:29;29.80;96.10
15656;DHT22;7928;43.614;1.456;2023-08-30T14:28:56;31.10;95.90
15656;DHT22;7928;43.614;1.456;2023-08-30T14:31:24;31.80;94.80
15656;DHT22;7928;43.614;1.456;2023-08-30T14:33:54;32.60;94.50
15656;DHT22;7928;43.614;1.456;2023-08-30T14:36:23;32.50;94.60
15656;DHT22;7928;43.614;1.456;2023-08-30T14:38:50;30.80;94.00
15656;DHT22;7928;43.614;1.456;2023-08-30T14:41:17;30.30;95.10
15656;DHT22;7928;43.614;1.456;2023-08-30T14:43:44;30.20;96.10
15656;DHT22;7928;43.614;1.456;2023-08-30T14:46:11;29.60;95.80
15656;DHT22;7928;43.614;1.456;2023-08-30T14:48:39;29.00;96.20
15656;DHT22;7928;43.614;1.456;2023-08-30T14:51:06;29.30;95.90
15656;DHT22;7928;43.614;1.456;2023-08-30T14:53:33;29.80;96.00
15656;DHT22;7928;43.614;1.456;2023-08-30T14:56:02;30.30;96.80
15656;DHT22;7928;43.614;1.456;2023-08-30T14:58:32;30.50;94.90
15656;DHT22;7928;43.614;1.456;2023-08-30T15:01:00;31.50;94.30
15656;DHT22;7928;43.614;1.456;2023-08-30T15:03:27;31.90;94.20
15656;DHT22;7928;43.614;1.456;2023-08-30T15:05:55;31.90;92.70
15656;DHT22;7928;43.614;1.456;2023-08-30T15:08:23;32.00;92.20
15656;DHT22;7928;43.614;1.456;2023-08-30T15:10:50;31.00;92.80
15656;DHT22;7928;43.614;1.456;2023-08-30T15:13:18;31.00;93.30
15656;DHT22;7928;43.614;1.456;2023-08-30T15:15:45;30.70;93.40
15656;DHT22;7928;43.614;1.456;2023-08-30T15:18:12;31.60;94.20
15656;DHT22;7928;43.614;1.456;2023-08-30T15:20:38;32.30;93.10
15656;DHT22;7928;43.614;1.456;2023-08-30T15:23:07;31.90;92.40
15656;DHT22;7928;43.614;1.456;2023-08-30T15:25:38;32.00;92.60
15656;DHT22;7928;43.614;1.456;2023-08-30T15:28:05;31.70;91.30
15656;DHT22;7928;43.614;1.456;2023-08-30T15:30:32;30.50;92.00
15656;DHT22;7928;43.614;1.456;2023-08-30T15:32:59;30.50;93.30
15656;DHT22;7928;43.614;1.456;2023-08-30T15:35:26;30.60;92.00
15656;DHT22;7928;43.614;1.456;2023-08-30T15:37:53;29.50;93.40
15656;DHT22;7928;43.614;1.456;2023-08-30T15:40:22;30.40;93.20
15656;DHT22;7928;43.614;1.456;2023-08-30T15:42:50;30.40;92.50
15656;DHT22;7928;43.614;1.456;2023-08-30T15:45:17;30.20;93.20
15656;DHT22;7928;43.614;1.456;2023-08-30T15:47:44;29.30;93.20
15656;DHT22;7928;43.614;1.456;2023-08-30T15:50:11;28.80;93.50